createdAt,value
2023-04-08T00:00:40.492Z,0.00
2023-04-08T00:01:40.488Z,0.00
2023-04-08T00:02:40.576Z,0.00
2023-04-08T00:03:40.575Z,0.00
2023-04-08T00:04:40.456Z,0.00
2023-04-08T00:05:40.427Z,0.00
2023-04-08T00:06:40.387Z,0.00
2023-04-08T00:07:40.378Z,0.00
2023-04-08T00:08:40.567Z,0.00
2023-04-08T00:09:40.375Z,0.00
2023-04-08T00:10:40.384Z,0.00
2023-04-08T00:11:40.312Z,0.00
2023-04-08T00:12:40.301Z,0.00
2023-04-08T00:13:40.303Z,0.00
2023-04-08T00:15:57.138Z,0.00
2023-04-08T00:16:57.115Z,0.00
2023-04-08T00:17:57.112Z,0.00
2023-04-08T00:19:20.228Z,0.00
2023-04-08T00:19:57.073Z,0.00
2023-04-08T00:20:57.094Z,0.00
2023-04-08T00:21:57.030Z,0.00
2023-04-08T00:22:57.021Z,0.00
2023-04-08T00:23:57.006Z,0.00
2023-04-08T00:24:56.993Z,0.00
2023-04-08T00:25:56.982Z,0.00
2023-04-08T00:26:56.952Z,0.00
2023-04-08T00:27:56.949Z,0.00
2023-04-08T00:28:57.035Z,0.00
2023-04-08T00:29:56.966Z,0.00
2023-04-08T00:30:56.951Z,0.00
2023-04-08T00:31:56.893Z,0.00
2023-04-08T00:32:56.896Z,0.00
2023-04-08T00:33:56.920Z,0.00
2023-04-08T00:34:56.891Z,0.00
2023-04-08T00:35:56.866Z,0.00
2023-04-08T00:36:56.827Z,0.00
2023-04-08T00:37:56.811Z,0.00
2023-04-08T00:38:56.792Z,0.00
2023-04-08T00:39:56.810Z,0.00
2023-04-08T00:40:56.785Z,0.00
2023-04-08T00:41:56.749Z,0.00
2023-04-08T00:42:56.760Z,0.00
2023-04-08T00:43:56.751Z,0.00
2023-04-08T00:44:56.709Z,0.00
2023-04-08T00:45:56.737Z,0.00
2023-04-08T00:46:56.701Z,0.00
2023-04-08T00:47:56.705Z,0.00
2023-04-08T00:48:56.658Z,0.00
2023-04-08T00:49:56.657Z,0.00
2023-04-08T00:50:56.633Z,0.00
2023-04-08T00:51:56.648Z,0.00
2023-04-08T00:52:56.608Z,0.00
2023-04-08T00:53:56.593Z,0.00
2023-04-08T00:54:56.586Z,0.00
2023-04-08T00:55:56.563Z,0.00
2023-04-08T00:56:56.556Z,0.00
2023-04-08T00:57:56.539Z,0.00
2023-04-08T00:58:56.516Z,0.00
2023-04-08T00:59:56.564Z,0.00
2023-04-08T01:00:56.495Z,0.00
2023-04-08T01:01:56.651Z,0.00
2023-04-08T01:02:56.561Z,0.00
2023-04-08T01:03:56.544Z,0.00
2023-04-08T01:04:56.445Z,0.00
2023-04-08T01:05:56.443Z,0.00
2023-04-08T01:06:56.448Z,0.00
2023-04-08T01:07:56.404Z,0.00
2023-04-08T01:08:56.397Z,0.00
2023-04-08T01:09:58.548Z,0.00
2023-04-08T01:10:56.402Z,0.00
2023-04-08T01:11:56.399Z,0.00
2023-04-08T01:12:56.345Z,0.00
2023-04-08T01:13:56.318Z,0.00
2023-04-08T01:14:56.307Z,0.00
2023-04-08T01:15:56.302Z,0.00
2023-04-08T01:16:56.289Z,0.00
2023-04-08T01:17:56.340Z,0.00
2023-04-08T01:18:56.246Z,0.00
2023-04-08T01:19:56.245Z,0.00
2023-04-08T01:20:56.237Z,0.00
2023-04-08T01:21:57.230Z,0.00
2023-04-08T01:22:56.187Z,0.00
2023-04-08T01:23:56.199Z,0.00
2023-04-08T01:24:56.209Z,0.00
2023-04-08T01:25:56.155Z,0.00
2023-04-08T01:26:56.170Z,0.00
2023-04-08T01:27:56.119Z,0.00
2023-04-08T01:28:56.113Z,0.00
2023-04-08T01:29:57.258Z,0.00
2023-04-08T01:30:56.126Z,0.00
2023-04-08T01:31:56.084Z,0.00
2023-04-08T01:32:56.138Z,0.00
2023-04-08T01:33:56.046Z,0.00
2023-04-08T01:34:56.029Z,0.00
2023-04-08T01:35:58.190Z,0.00
2023-04-08T01:36:57.910Z,0.00
2023-04-08T01:37:56.002Z,0.00
2023-04-08T01:38:55.998Z,0.00
2023-04-08T01:39:55.974Z,0.00
2023-04-08T01:41:18.028Z,0.00
2023-04-08T01:41:55.989Z,0.00
2023-04-08T01:42:55.942Z,0.00
2023-04-08T01:43:58.193Z,0.00
2023-04-08T01:44:55.916Z,0.00
2023-04-08T01:45:55.943Z,0.00
2023-04-08T01:46:55.948Z,0.00
2023-04-08T01:47:55.916Z,0.00
2023-04-08T01:48:55.847Z,0.00
2023-04-08T01:50:16.859Z,0.00
2023-04-08T01:50:55.835Z,0.00
2023-04-08T01:51:55.830Z,0.00
2023-04-08T01:52:56.039Z,0.00
2023-04-08T01:53:55.788Z,0.00
2023-04-08T01:54:55.773Z,0.00
2023-04-08T02:09:26.310Z,0.00
2023-04-08T02:10:04.940Z,0.00
2023-04-08T02:11:04.937Z,0.00
2023-04-08T02:12:04.951Z,0.00
2023-04-08T02:13:04.977Z,0.00
2023-04-08T02:14:04.912Z,0.00
2023-04-08T02:15:04.915Z,0.00
2023-04-08T02:16:04.922Z,0.00
2023-04-08T02:17:04.873Z,0.00
2023-04-08T02:18:04.977Z,0.00
2023-04-08T02:19:04.841Z,0.00
2023-04-08T02:20:04.829Z,0.00
2023-04-08T02:21:04.848Z,0.00
2023-04-08T02:22:04.815Z,0.00
2023-04-08T02:23:04.808Z,0.00
2023-04-08T02:24:04.764Z,0.00
2023-04-08T02:25:04.819Z,0.00
2023-04-08T02:26:04.735Z,0.00
2023-04-08T02:27:04.880Z,0.00
2023-04-08T02:28:04.718Z,0.00
2023-04-08T02:29:04.690Z,0.00
2023-04-08T02:30:04.764Z,0.00
2023-04-08T02:31:04.742Z,0.00
2023-04-08T02:32:04.718Z,0.00
2023-04-08T02:33:04.708Z,0.00
2023-04-08T02:34:04.648Z,0.00
2023-04-08T02:35:04.600Z,0.00
2023-04-08T02:36:04.652Z,0.00
2023-04-08T02:37:04.656Z,0.00
2023-04-08T02:38:04.587Z,0.00
2023-04-08T02:39:04.604Z,0.00
2023-04-08T02:40:04.555Z,0.00
2023-04-08T02:41:04.606Z,0.00
2023-04-08T02:42:04.608Z,0.00
2023-04-08T02:43:04.529Z,0.00
2023-04-08T02:44:04.494Z,0.00
2023-04-08T02:45:04.541Z,0.00
2023-04-08T02:46:04.643Z,0.00
2023-04-08T02:47:04.473Z,0.00
2023-04-08T02:48:04.485Z,0.00
2023-04-08T02:49:04.517Z,0.00
2023-04-08T02:50:04.477Z,0.00
2023-04-08T02:51:04.405Z,0.00
2023-04-08T02:52:04.431Z,0.00
2023-04-08T02:53:04.376Z,0.00
2023-04-08T02:54:04.390Z,0.00
2023-04-08T02:55:04.392Z,0.00
2023-04-08T02:56:04.322Z,0.00
2023-04-08T02:57:04.397Z,0.00
2023-04-08T02:58:04.296Z,0.00
2023-04-08T02:59:04.276Z,0.00
2023-04-08T03:00:04.273Z,0.00
2023-04-08T03:01:04.262Z,0.00
2023-04-08T03:02:04.397Z,0.00
2023-04-08T03:03:04.304Z,0.00
2023-04-08T03:04:04.346Z,0.00
2023-04-08T03:05:04.195Z,0.00
2023-04-08T03:06:04.173Z,0.00
2023-04-08T03:07:04.398Z,0.00
2023-04-08T03:08:04.185Z,0.00
2023-04-08T03:09:04.173Z,0.00
2023-04-08T03:10:04.148Z,0.00
2023-04-08T03:11:04.146Z,0.00
2023-04-08T03:12:04.116Z,0.00
2023-04-08T03:13:04.140Z,0.00
2023-04-08T03:14:04.079Z,0.00
2023-04-08T03:15:04.120Z,0.00
2023-04-08T03:16:04.074Z,0.00
2023-04-08T03:17:04.072Z,0.00
2023-04-08T03:18:04.101Z,0.00
2023-04-08T03:19:04.061Z,0.00
2023-04-08T03:20:04.019Z,0.00
2023-04-08T03:21:03.996Z,0.00
2023-04-08T03:22:03.996Z,0.00
2023-04-08T03:23:03.963Z,0.00
2023-04-08T03:24:03.944Z,0.00
2023-04-08T03:25:03.986Z,0.00
2023-04-08T03:26:03.924Z,0.00
2023-04-08T03:27:03.950Z,0.00
2023-04-08T03:28:03.927Z,0.00
2023-04-08T03:29:03.888Z,0.00
2023-04-08T03:30:03.858Z,0.00
2023-04-08T03:31:03.898Z,0.00
2023-04-08T03:32:03.909Z,0.00
2023-04-08T03:33:05.647Z,0.00
2023-04-08T03:34:03.831Z,0.00
2023-04-08T03:35:03.801Z,0.00
2023-04-08T03:36:03.799Z,0.00
2023-04-08T03:37:03.783Z,0.00
2023-04-08T03:38:03.736Z,0.00
2023-04-08T03:39:03.748Z,0.00
2023-04-08T03:40:03.714Z,0.00
2023-04-08T03:41:03.729Z,0.00
2023-04-08T03:42:03.718Z,0.00
2023-04-08T03:43:03.721Z,0.00
2023-04-08T03:44:03.689Z,0.00
2023-04-08T03:45:03.668Z,0.00
2023-04-08T03:46:03.675Z,0.00
2023-04-08T03:47:03.667Z,0.00
2023-04-08T03:48:03.746Z,0.00
2023-04-08T03:49:03.592Z,0.00
2023-04-08T03:50:03.641Z,0.00
2023-04-08T03:51:03.580Z,0.00
2023-04-08T03:52:03.613Z,0.00
2023-04-08T03:53:03.570Z,0.00
2023-04-08T03:54:03.546Z,0.00
2023-04-08T03:55:03.529Z,0.00
2023-04-08T03:56:03.511Z,0.00
2023-04-08T03:57:03.507Z,0.00
2023-04-08T03:58:03.468Z,0.00
2023-04-08T03:59:03.484Z,0.00
2023-04-08T04:00:03.501Z,0.00
2023-04-08T04:01:03.446Z,0.00
2023-04-08T04:02:03.510Z,0.00
2023-04-08T04:03:03.547Z,0.00
2023-04-08T04:04:03.635Z,0.00
2023-04-08T04:05:03.418Z,0.00
2023-04-08T04:06:03.394Z,0.00
2023-04-08T04:07:03.359Z,0.00
2023-04-08T04:48:07.429Z,0.00
2023-04-08T04:48:49.188Z,0.00
2023-04-08T04:49:48.959Z,0.00
2023-04-08T05:18:23.675Z,11.25
2023-04-08T05:19:24.654Z,11.25
2023-04-08T05:20:24.684Z,11.25
2023-04-08T05:21:24.622Z,11.25
2023-04-08T05:22:24.695Z,11.25
2023-04-08T05:23:24.582Z,11.25
2023-04-08T05:24:24.570Z,11.25
2023-04-08T05:25:47.712Z,16.88
2023-04-08T05:26:24.584Z,16.88
2023-04-08T05:27:24.561Z,16.88
2023-04-08T05:28:45.649Z,16.88
2023-04-08T05:29:24.541Z,16.88
2023-04-08T05:30:24.477Z,16.88
2023-04-08T05:31:24.518Z,16.88
2023-04-08T05:32:24.504Z,16.88
2023-04-08T05:33:24.487Z,22.50
2023-04-08T05:34:24.455Z,22.50
2023-04-08T05:35:24.488Z,22.50
2023-04-08T05:36:24.409Z,22.50
2023-04-08T05:37:24.445Z,22.50
2023-04-08T05:38:24.427Z,22.50
2023-04-08T05:39:24.416Z,22.50
2023-04-08T05:40:24.346Z,22.50
2023-04-08T05:41:24.348Z,28.12
2023-04-08T05:42:24.428Z,28.12
2023-04-08T05:43:24.340Z,28.12
2023-04-08T05:44:24.306Z,28.12
2023-04-08T05:45:24.330Z,28.12
2023-04-08T05:46:24.297Z,28.12
2023-04-08T05:47:24.280Z,28.12
2023-04-08T05:48:24.314Z,33.75
2023-04-08T05:49:24.230Z,33.75
2023-04-08T05:50:24.233Z,28.12
2023-04-08T05:51:24.226Z,28.12
2023-04-08T05:52:24.187Z,28.12
2023-04-08T05:53:24.185Z,28.12
2023-04-08T05:54:24.150Z,28.12
2023-04-08T05:55:24.162Z,28.12
2023-04-08T05:56:24.132Z,28.12
2023-04-08T05:57:24.149Z,28.12
2023-04-08T05:58:24.114Z,33.75
2023-04-08T05:59:24.101Z,33.75
2023-04-08T06:00:24.099Z,39.38
2023-04-08T06:01:24.064Z,39.38
2023-04-08T06:02:24.145Z,45.00
2023-04-08T06:03:24.282Z,50.62
2023-04-08T06:04:24.108Z,50.62
2023-04-08T06:05:23.993Z,56.25
2023-04-08T06:06:23.975Z,61.88
2023-04-08T06:07:23.976Z,61.88
2023-04-08T06:08:23.985Z,61.88
2023-04-08T06:09:23.954Z,61.88
2023-04-08T06:10:23.967Z,61.88
2023-04-08T06:11:23.921Z,61.88
2023-04-08T06:12:23.925Z,61.88
2023-04-08T06:13:23.936Z,61.88
2023-04-08T06:14:23.871Z,61.88
2023-04-08T06:15:23.878Z,56.25
2023-04-08T06:16:23.930Z,56.25
2023-04-08T06:17:23.999Z,56.25
2023-04-08T06:18:23.839Z,50.62
2023-04-08T06:19:23.798Z,50.62
2023-04-08T06:20:23.804Z,45.00
2023-04-08T06:21:23.793Z,45.00
2023-04-08T06:22:23.845Z,45.00
2023-04-08T06:23:24.056Z,45.00
2023-04-08T06:24:23.735Z,39.38
2023-04-08T06:25:23.827Z,39.38
2023-04-08T06:26:23.864Z,39.38
2023-04-08T06:27:23.749Z,39.38
2023-04-08T06:28:23.700Z,39.38
2023-04-08T06:29:23.752Z,39.38
2023-04-08T06:30:23.700Z,39.38
2023-04-08T06:31:23.692Z,45.00
2023-04-08T06:32:23.663Z,45.00
2023-04-08T06:33:23.650Z,45.00
2023-04-08T06:34:23.646Z,50.62
2023-04-08T06:35:23.643Z,50.62
2023-04-08T06:36:23.588Z,56.25
2023-04-08T06:37:23.603Z,56.25
2023-04-08T06:38:23.789Z,61.88
2023-04-08T06:39:23.529Z,67.50
2023-04-08T06:40:23.560Z,73.12
2023-04-08T06:41:23.529Z,73.12
2023-04-08T06:42:23.524Z,78.75
2023-04-08T06:43:23.560Z,78.75
2023-04-08T06:44:23.501Z,84.38
2023-04-08T06:45:23.461Z,90.00
2023-04-08T06:46:23.531Z,95.62
2023-04-08T06:47:23.523Z,101.25
2023-04-08T06:48:23.440Z,106.88
2023-04-08T06:49:23.403Z,118.12
2023-04-08T06:50:23.367Z,0.00
2023-04-08T06:51:23.382Z,0.00
2023-04-08T06:52:23.420Z,0.00
2023-04-08T06:53:23.376Z,0.00
2023-04-08T06:54:23.321Z,0.00
2023-04-08T06:55:23.336Z,0.00
2023-04-08T06:56:23.329Z,0.00
2023-04-08T06:57:16.384Z,95.62
2023-04-08T06:58:18.057Z,90.00
2023-04-08T06:59:17.560Z,84.38
2023-04-08T07:00:17.890Z,84.38
2023-04-08T07:01:17.656Z,78.75
2023-04-08T07:02:21.759Z,67.50
2023-04-08T07:03:17.771Z,78.75
2023-04-08T07:04:17.326Z,78.75
2023-04-08T07:05:17.250Z,78.75
2023-04-08T07:06:17.241Z,84.38
2023-04-08T07:07:17.227Z,84.38
2023-04-08T07:08:17.243Z,90.00
2023-04-08T07:09:16.414Z,90.00
2023-04-08T07:10:17.331Z,84.38
2023-04-08T07:11:17.221Z,90.00
2023-04-08T07:12:17.174Z,90.00
2023-04-08T07:13:17.149Z,95.62
2023-04-08T07:14:17.154Z,112.50
2023-04-08T07:15:17.139Z,106.88
2023-04-08T07:16:17.167Z,101.25
2023-04-08T07:17:17.127Z,101.25
2023-04-08T07:18:17.134Z,95.62
2023-04-08T07:19:17.083Z,90.00
2023-04-08T07:20:17.092Z,84.38
2023-04-08T07:21:17.053Z,84.38
2023-04-08T07:22:17.035Z,78.75
2023-04-08T07:23:17.048Z,61.88
2023-04-08T07:24:17.015Z,61.88
2023-04-08T07:25:16.979Z,61.88
2023-04-08T07:26:17.002Z,67.50
2023-04-08T07:27:16.950Z,67.50
2023-04-08T07:28:16.955Z,67.50
2023-04-08T07:29:16.928Z,67.50
2023-04-08T07:30:16.908Z,73.12
2023-04-08T07:31:16.983Z,73.12
2023-04-08T07:32:16.911Z,78.75
2023-04-08T07:33:16.884Z,84.38
2023-04-08T07:34:16.896Z,106.88
2023-04-08T07:35:16.873Z,123.75
2023-04-08T07:36:16.847Z,140.62
2023-04-08T07:37:16.847Z,140.62
2023-04-08T07:38:16.847Z,129.38
2023-04-08T07:39:16.822Z,112.50
2023-04-08T07:40:16.793Z,106.88
2023-04-08T07:41:16.848Z,106.88
2023-04-08T07:42:16.791Z,101.25
2023-04-08T07:43:16.740Z,90.00
2023-04-08T07:44:16.838Z,73.12
2023-04-08T07:45:16.706Z,67.50
2023-04-08T07:46:16.719Z,61.88
2023-04-08T07:47:16.743Z,56.25
2023-04-08T07:48:16.722Z,56.25
2023-04-08T07:49:16.651Z,56.25
2023-04-08T07:50:16.653Z,56.25
2023-04-08T07:51:16.700Z,50.62
2023-04-08T07:52:16.629Z,50.62
2023-04-08T07:53:16.685Z,50.62
2023-04-08T07:54:16.586Z,50.62
2023-04-08T07:55:16.585Z,56.25
2023-04-08T07:56:16.636Z,61.88
2023-04-08T07:57:16.549Z,67.50
2023-04-08T07:58:16.558Z,78.75
2023-04-08T07:59:16.573Z,90.00
2023-04-08T08:00:16.538Z,90.00
2023-04-08T08:01:16.527Z,84.38
2023-04-08T08:02:16.699Z,90.00
2023-04-08T08:03:16.603Z,95.62
2023-04-08T08:04:16.589Z,95.62
2023-04-08T08:05:16.579Z,84.38
2023-04-08T08:06:16.460Z,84.38
2023-04-08T08:07:16.415Z,84.38
2023-04-08T08:08:16.411Z,84.38
2023-04-08T08:09:16.391Z,84.38
2023-04-08T08:10:16.382Z,84.38
2023-04-08T08:11:16.382Z,84.38
2023-04-08T08:12:16.356Z,90.00
2023-04-08T08:13:16.348Z,84.38
2023-04-08T08:14:16.333Z,84.38
2023-04-08T08:15:16.347Z,95.62
2023-04-08T08:16:16.398Z,106.88
2023-04-08T08:17:16.289Z,123.75
2023-04-08T08:18:16.275Z,129.38
2023-04-08T08:19:16.271Z,129.38
2023-04-08T08:20:16.282Z,129.38
2023-04-08T08:21:16.278Z,129.38
2023-04-08T08:22:16.981Z,129.38
2023-04-08T08:23:16.205Z,129.38
2023-04-08T08:24:16.254Z,135.00
2023-04-08T08:25:16.235Z,140.62
2023-04-08T08:26:16.179Z,146.25
2023-04-08T08:27:16.147Z,151.88
2023-04-08T08:28:16.155Z,146.25
2023-04-08T08:29:16.117Z,146.25
2023-04-08T08:30:16.137Z,135.00
2023-04-08T08:31:16.110Z,129.38
2023-04-08T08:32:16.100Z,129.38
2023-04-08T08:33:16.112Z,129.38
2023-04-08T08:34:16.073Z,129.38
2023-04-08T08:35:16.090Z,123.75
2023-04-08T08:36:16.111Z,118.12
2023-04-08T08:37:16.022Z,123.75
2023-04-08T08:38:16.014Z,123.75
2023-04-08T08:39:16.024Z,112.50
2023-04-08T08:40:16.011Z,101.25
2023-04-08T08:41:16.035Z,95.62
2023-04-08T08:42:15.969Z,90.00
2023-04-08T08:43:15.964Z,95.62
2023-04-08T08:44:15.930Z,78.75
2023-04-08T08:45:15.945Z,67.50
2023-04-08T08:46:15.904Z,67.50
2023-04-08T08:47:15.938Z,73.12
2023-04-08T08:48:15.909Z,78.75
2023-04-08T08:49:15.860Z,90.00
2023-04-08T08:50:15.876Z,84.38
2023-04-08T08:51:15.871Z,84.38
2023-04-08T08:52:15.831Z,95.62
2023-04-08T08:53:15.838Z,101.25
2023-04-08T08:54:15.858Z,106.88
2023-04-08T08:55:31.647Z,118.12
2023-04-08T08:56:18.702Z,129.38
2023-04-08T08:57:15.794Z,151.88
2023-04-08T08:58:15.743Z,163.12
2023-04-08T08:59:15.723Z,174.38
2023-04-08T09:00:15.739Z,174.38
2023-04-08T09:01:15.706Z,180.00
2023-04-08T09:02:15.757Z,185.62
2023-04-08T09:03:16.069Z,185.62
2023-04-08T09:04:16.007Z,180.00
2023-04-08T09:05:15.832Z,174.38
2023-04-08T09:06:15.633Z,163.12
2023-04-08T09:07:15.699Z,168.75
2023-04-08T09:08:15.603Z,168.75
2023-04-08T09:09:15.609Z,168.75
2023-04-08T09:10:15.607Z,157.50
2023-04-08T09:11:15.563Z,146.25
2023-04-08T09:12:17.688Z,140.62
2023-04-08T09:13:15.529Z,151.88
2023-04-08T09:14:15.565Z,140.62
2023-04-08T09:15:15.500Z,118.12
2023-04-08T09:16:15.575Z,118.12
2023-04-08T09:17:15.535Z,112.50
2023-04-08T09:18:16.910Z,106.88
2023-04-08T09:19:15.480Z,95.62
2023-04-08T09:20:15.458Z,84.38
2023-04-08T09:21:15.461Z,90.00
2023-04-08T09:22:15.418Z,84.38
2023-04-08T09:23:15.412Z,84.38
2023-04-08T09:24:16.794Z,90.00
2023-04-08T09:25:15.438Z,95.62
2023-04-08T09:26:15.360Z,95.62
2023-04-08T09:27:15.335Z,101.25
2023-04-08T09:28:15.340Z,101.25
2023-04-08T09:29:25.602Z,106.88
2023-04-08T09:30:15.322Z,118.12
2023-04-08T09:31:15.341Z,129.38
2023-04-08T09:32:15.299Z,140.62
2023-04-08T09:33:15.272Z,157.50
2023-04-08T09:34:15.339Z,0.00
2023-04-08T09:35:15.248Z,0.00
2023-04-08T09:36:15.248Z,0.00
2023-04-08T09:37:15.234Z,0.00
2023-04-08T09:38:15.231Z,0.00
2023-04-08T09:39:15.179Z,0.00
2023-04-08T09:40:15.180Z,0.00
2023-04-08T09:41:15.184Z,0.00
2023-04-08T09:42:15.244Z,0.00
2023-04-08T09:43:15.148Z,0.00
2023-04-08T09:44:15.129Z,0.00
2023-04-08T09:45:15.169Z,0.00
2023-04-08T09:46:15.357Z,0.00
2023-04-08T09:47:15.065Z,0.00
2023-04-08T09:48:16.351Z,0.00
2023-04-08T09:49:15.079Z,0.00
2023-04-08T09:50:15.044Z,0.00
2023-04-08T09:51:15.044Z,0.00
2023-04-08T09:52:15.040Z,0.00
2023-04-08T09:53:15.010Z,0.00
2023-04-08T09:54:15.021Z,0.00
2023-04-08T09:55:14.978Z,0.00
2023-04-08T09:56:14.998Z,0.00
2023-04-08T09:57:14.934Z,0.00
2023-04-08T09:58:14.940Z,0.00
2023-04-08T09:59:14.962Z,0.00
2023-04-08T10:00:14.924Z,0.00
2023-04-08T10:01:14.982Z,0.00
2023-04-08T10:02:14.961Z,0.00
2023-04-08T10:03:15.090Z,0.00
2023-04-08T10:04:14.999Z,0.00
2023-04-08T10:05:14.957Z,0.00
2023-04-08T10:06:14.837Z,0.00
2023-04-08T10:07:14.846Z,0.00
2023-04-08T10:08:14.820Z,0.00
2023-04-08T10:09:14.831Z,0.00
2023-04-08T10:10:14.780Z,0.00
2023-04-08T10:11:14.831Z,0.00
2023-04-08T10:12:14.765Z,0.00
2023-04-08T10:13:14.751Z,0.00
2023-04-08T10:14:14.781Z,0.00
2023-04-08T10:15:14.700Z,0.00
2023-04-08T10:16:14.704Z,0.00
2023-04-08T10:17:14.702Z,0.00
2023-04-08T10:18:14.730Z,0.00
2023-04-08T10:19:14.655Z,0.00
2023-04-08T10:20:14.688Z,0.00
2023-04-08T10:21:14.628Z,0.00
2023-04-08T10:22:14.620Z,0.00
2023-04-08T10:23:14.588Z,0.00
2023-04-08T10:24:14.600Z,0.00
2023-04-08T10:25:14.594Z,0.00
2023-04-08T10:26:14.604Z,0.00
2023-04-08T10:27:14.538Z,0.00
2023-04-08T10:28:14.610Z,0.00
2023-04-08T10:29:14.523Z,0.00
2023-04-08T10:30:14.509Z,0.00
2023-04-08T10:31:14.559Z,0.00
2023-04-08T10:32:14.533Z,0.00
2023-04-08T10:33:14.471Z,0.00
2023-04-08T10:34:14.492Z,0.00
2023-04-08T10:35:14.489Z,0.00
2023-04-08T10:36:14.446Z,0.00
2023-04-08T10:37:14.465Z,0.00
2023-04-08T10:38:14.447Z,0.00
2023-04-08T10:39:14.416Z,0.00
2023-04-08T10:40:14.383Z,0.00
2023-04-08T10:41:14.605Z,0.00
2023-04-08T10:42:14.328Z,0.00
2023-04-08T10:43:14.341Z,0.00
2023-04-08T10:44:14.356Z,0.00
2023-04-08T10:45:14.312Z,0.00
2023-04-08T10:46:14.389Z,0.00
2023-04-08T10:47:14.307Z,0.00
2023-04-08T10:48:04.737Z,151.88
2023-04-08T10:49:05.735Z,163.12
2023-04-08T10:50:05.693Z,168.75
2023-04-08T10:51:05.833Z,174.38
2023-04-08T10:52:05.773Z,191.25
2023-04-08T10:53:05.659Z,202.50
2023-04-08T10:54:05.684Z,208.12
2023-04-08T10:55:05.629Z,213.75
2023-04-08T10:56:05.678Z,208.12
2023-04-08T10:57:05.588Z,213.75
2023-04-08T10:58:05.626Z,208.12
2023-04-08T10:59:05.597Z,202.50
2023-04-08T11:00:05.562Z,191.25
2023-04-08T11:01:05.579Z,191.25
2023-04-08T11:02:05.705Z,196.88
2023-04-08T11:03:05.685Z,196.88
2023-04-08T11:04:05.600Z,196.88
2023-04-08T11:05:05.493Z,202.50
2023-04-08T11:06:05.477Z,208.12
2023-04-08T11:07:05.510Z,208.12
2023-04-08T11:08:05.520Z,213.75
2023-04-08T11:09:05.476Z,225.00
2023-04-08T11:10:05.474Z,225.00
2023-04-08T11:11:05.403Z,225.00
2023-04-08T11:12:05.396Z,225.00
2023-04-08T11:13:05.386Z,219.38
2023-04-08T11:14:05.381Z,219.38
2023-04-08T11:15:05.403Z,219.38
2023-04-08T11:17:05.323Z,230.62
2023-04-08T11:18:05.502Z,225.00
2023-04-08T11:19:05.285Z,225.00
2023-04-08T11:20:05.316Z,230.62
2023-04-08T11:21:05.278Z,225.00
2023-04-08T11:22:05.274Z,225.00
2023-04-08T11:23:05.326Z,225.00
2023-04-08T11:24:05.267Z,230.62
2023-04-08T11:25:05.258Z,230.62
2023-04-08T11:26:06.324Z,225.00
2023-04-08T11:27:05.188Z,225.00
2023-04-08T11:28:05.208Z,225.00
2023-04-08T11:29:05.156Z,225.00
2023-04-08T11:30:05.200Z,225.00
2023-04-08T11:31:05.208Z,225.00
2023-04-08T11:32:05.126Z,225.00
2023-04-08T11:33:05.197Z,219.38
2023-04-08T11:34:05.115Z,213.75
2023-04-08T11:35:05.074Z,213.75
2023-04-08T11:36:05.095Z,219.38
2023-04-08T11:37:05.099Z,219.38
2023-04-08T11:38:05.095Z,225.00
2023-04-08T11:39:05.022Z,219.38
2023-04-08T11:40:05.050Z,219.38
2023-04-08T11:41:05.012Z,213.75
2023-04-08T11:42:05.019Z,213.75
2023-04-08T11:43:04.974Z,225.00
2023-04-08T11:44:05.082Z,225.00
2023-04-08T11:45:04.947Z,219.38
2023-04-08T11:46:04.967Z,219.38
2023-04-08T11:47:04.942Z,219.38
2023-04-08T11:48:05.093Z,219.38
2023-04-08T11:49:04.879Z,219.38
2023-04-08T11:50:04.884Z,213.75
2023-04-08T11:51:04.905Z,208.12
2023-04-08T11:52:04.879Z,208.12
2023-04-08T11:53:04.840Z,213.75
2023-04-08T11:54:04.859Z,208.12
2023-04-08T11:55:04.808Z,202.50
2023-04-08T11:56:04.809Z,196.88
2023-04-08T11:57:04.782Z,202.50
2023-04-08T11:58:04.783Z,202.50
2023-04-08T11:59:04.747Z,213.75
2023-04-08T12:00:04.751Z,219.38
2023-04-08T12:01:04.730Z,225.00
2023-04-08T12:02:04.800Z,219.38
2023-04-08T12:03:04.785Z,213.75
2023-04-08T12:04:04.849Z,208.12
2023-04-08T12:05:04.684Z,202.50
2023-04-08T12:06:04.662Z,191.25
2023-04-08T12:07:04.653Z,180.00
2023-04-08T12:08:04.660Z,168.75
2023-04-08T12:09:04.619Z,163.12
2023-04-08T12:10:04.611Z,151.88
2023-04-08T12:11:18.687Z,146.25
2023-04-08T12:12:04.593Z,146.25
2023-04-08T12:13:04.605Z,151.88
2023-04-08T12:14:04.553Z,168.75
2023-04-08T12:15:04.530Z,185.62
2023-04-08T12:16:04.560Z,196.88
2023-04-08T12:17:04.512Z,202.50
2023-04-08T12:18:04.660Z,196.88
2023-04-08T12:19:04.481Z,208.12
2023-04-08T12:20:04.479Z,213.75
2023-04-08T12:21:04.456Z,219.38
2023-04-08T12:22:04.448Z,208.12
2023-04-08T12:23:04.446Z,191.25
2023-04-08T12:24:04.454Z,180.00
2023-04-08T12:25:04.389Z,180.00
2023-04-08T12:26:04.417Z,191.25
2023-04-08T12:27:04.415Z,196.88
2023-04-08T12:28:04.373Z,191.25
2023-04-08T12:29:04.337Z,180.00
2023-04-08T12:30:04.349Z,180.00
2023-04-08T12:31:04.341Z,185.62
2023-04-08T12:32:04.296Z,185.62
2023-04-08T12:33:04.363Z,196.88
2023-04-08T12:34:04.288Z,196.88
2023-04-08T12:35:04.277Z,202.50
2023-04-08T12:36:04.375Z,208.12
2023-04-08T12:37:04.266Z,202.50
2023-04-08T12:38:04.266Z,202.50
2023-04-08T12:39:04.214Z,185.62
2023-04-08T12:40:04.259Z,146.25
2023-04-08T12:41:04.195Z,140.62
2023-04-08T12:42:04.208Z,140.62
2023-04-08T12:43:04.209Z,140.62
2023-04-08T12:44:04.150Z,163.12
2023-04-08T12:45:04.140Z,185.62
2023-04-08T12:46:04.148Z,180.00
2023-04-08T12:47:04.160Z,180.00
2023-04-08T12:48:04.131Z,185.62
2023-04-08T12:49:05.365Z,191.25
2023-04-08T12:50:04.062Z,180.00
2023-04-08T12:51:04.048Z,180.00
2023-04-08T12:52:04.136Z,180.00
2023-04-08T12:53:04.029Z,185.62
2023-04-08T12:54:04.023Z,202.50
2023-04-08T12:55:04.026Z,185.62
2023-04-08T12:56:04.029Z,185.62
2023-04-08T12:57:03.995Z,163.12
2023-04-08T12:58:04.008Z,140.62
2023-04-08T12:59:04.002Z,129.38
2023-04-08T13:00:03.932Z,146.25
2023-04-08T13:01:03.963Z,163.12
2023-04-08T13:02:03.942Z,185.62
2023-04-08T13:03:03.961Z,180.00
2023-04-08T13:04:03.968Z,163.12
2023-04-08T13:05:03.866Z,157.50
2023-04-08T13:06:03.851Z,151.88
2023-04-08T13:07:03.901Z,140.62
2023-04-08T13:08:03.841Z,135.00
2023-04-08T13:09:03.811Z,140.62
2023-04-08T13:10:03.807Z,140.62
2023-04-08T13:11:03.825Z,129.38
2023-04-08T13:12:03.772Z,123.75
2023-04-08T13:13:03.781Z,112.50
2023-04-08T13:14:03.733Z,106.88
2023-04-08T13:15:03.726Z,106.88
2023-04-08T13:16:03.740Z,118.12
2023-04-08T13:17:03.777Z,129.38
2023-04-08T13:18:03.762Z,135.00
2023-04-08T13:19:03.675Z,146.25
2023-04-08T13:20:03.702Z,146.25
2023-04-08T13:21:03.650Z,140.62
2023-04-08T13:22:03.642Z,146.25
2023-04-08T13:23:03.634Z,157.50
2023-04-08T13:24:03.606Z,151.88
2023-04-08T13:25:03.601Z,151.88
2023-04-08T13:26:03.600Z,151.88
2023-04-08T13:27:03.624Z,163.12
2023-04-08T13:28:03.547Z,168.75
2023-04-08T13:29:03.805Z,157.50
2023-04-08T13:30:03.530Z,151.88
2023-04-08T13:31:03.529Z,129.38
2023-04-08T13:32:03.554Z,123.75
2023-04-08T13:33:03.513Z,118.12
2023-04-08T13:34:03.477Z,112.50
2023-04-08T13:35:03.481Z,112.50
2023-04-08T13:36:03.496Z,101.25
2023-04-08T13:37:03.443Z,95.62
2023-04-08T13:38:03.425Z,90.00
2023-04-08T13:39:03.404Z,95.62
2023-04-08T13:40:03.426Z,101.25
2023-04-08T13:41:03.402Z,101.25
2023-04-08T13:42:03.380Z,95.62
2023-04-08T13:43:03.380Z,101.25
2023-04-08T13:44:03.331Z,106.88
2023-04-08T13:45:03.324Z,112.50
2023-04-08T13:46:03.346Z,112.50
2023-04-08T13:47:03.373Z,112.50
2023-04-08T13:48:03.333Z,112.50
2023-04-08T13:49:03.267Z,112.50
2023-04-08T13:50:03.277Z,118.12
2023-04-08T13:51:03.240Z,123.75
2023-04-08T13:52:03.232Z,123.75
2023-04-08T13:53:03.197Z,118.12
2023-04-08T13:54:03.246Z,123.75
2023-04-08T13:55:03.200Z,129.38
2023-04-08T13:56:03.176Z,129.38
2023-04-08T13:57:03.172Z,123.75
2023-04-08T13:58:04.931Z,123.75
2023-04-08T13:59:03.420Z,123.75
2023-04-08T14:00:03.140Z,118.12
2023-04-08T14:01:03.152Z,123.75
2023-04-08T14:02:03.189Z,112.50
2023-04-08T14:03:03.146Z,101.25
2023-04-08T14:04:03.062Z,95.62
2023-04-08T14:05:03.037Z,106.88
2023-04-08T14:06:03.029Z,118.12
2023-04-08T14:07:03.040Z,118.12
2023-04-08T14:08:02.995Z,118.12
2023-04-08T14:09:02.986Z,118.12
2023-04-08T14:10:02.987Z,118.12
2023-04-08T14:11:02.952Z,123.75
2023-04-08T14:12:03.045Z,118.12
2023-04-08T14:13:02.962Z,106.88
2023-04-08T14:14:02.924Z,101.25
2023-04-08T14:15:02.944Z,95.62
2023-04-08T14:16:02.892Z,90.00
2023-04-08T14:17:02.967Z,90.00